Time;durP1;ratioP1;P1;durP2;ratioP2;P2;SDS_P1;SDS_P2;PMS_P1;PMS_P2;Temp;Humidity;BMP_temperature;BMP_pressure;BME280_temperature;BME280_humidity;BME280_pressure;Samples;Min_cycle;Max_cycle;Signal;HPM_P1;HPM_P2
2022/04/02 00:00:02;;;;;;;3.20;1.70;;;1.10;99.90;0.10;99618;;;;594047;238;24066;-82
2022/04/02 00:02:30;;;;;;;3.63;1.83;;;1.10;99.90;0.10;99611;;;;593731;238;24095;-82
2022/04/02 00:04:58;;;;;;;2.40;1.70;;;1.10;99.90;0.00;99613;;;;593858;238;24040;-82
2022/04/02 00:07:26;;;;;;;4.10;1.77;;;1.00;99.90;0.00;99632;;;;594313;238;24091;-80
2022/04/02 00:09:54;;;;;;;2.63;1.73;;;1.00;99.90;0.00;99617;;;;593891;238;24041;-77
2022/04/02 00:12:22;;;;;;;5.60;2.13;;;1.00;99.90;0.00;99615;;;;593925;238;24116;-78
2022/04/02 00:14:49;;;;;;;1.60;1.50;;;1.00;99.90;0.00;99602;;;;595031;237;24033;-82
2022/04/02 00:17:17;;;;;;;1.70;1.60;;;1.00;99.90;-0.10;99617;;;;594995;237;24040;-78
2022/04/02 00:19:46;;;;;;;4.17;2.30;;;0.90;99.90;-0.10;99609;;;;594668;238;24098;-79
2022/04/02 00:22:13;;;;;;;3.03;1.70;;;0.90;99.90;-0.10;99622;;;;594414;238;24150;-83
2022/04/02 00:24:41;;;;;;;2.37;1.90;;;0.90;99.90;-0.10;99623;;;;594379;238;24064;-80
2022/04/02 00:27:09;;;;;;;3.43;1.97;;;0.90;99.90;-0.10;99615;;;;594360;238;24025;-78
2022/04/02 00:29:38;;;;;;;4.20;2.03;;;0.80;99.90;-0.10;99600;;;;593878;238;24060;-78
2022/04/02 00:32:08;;;;;;;3.70;2.27;;;0.80;99.90;-0.10;99602;;;;593712;238;24062;-78
2022/04/02 00:34:36;;;;;;;7.97;1.90;;;0.80;99.90;-0.10;99605;;;;591530;238;24066;-78
2022/04/02 00:37:04;;;;;;;4.00;2.23;;;0.80;99.90;-0.20;99607;;;;593637;238;24054;-79
2022/04/02 00:39:32;;;;;;;1.83;1.60;;;0.80;99.90;-0.20;99606;;;;593700;238;24068;-78
2022/04/02 00:42:00;;;;;;;1.83;1.70;;;0.80;99.90;-0.20;99611;;;;593652;238;24033;-79
2022/04/02 00:44:28;;;;;;;2.50;1.80;;;0.80;99.90;-0.20;99605;;;;593726;238;24049;-78
2022/04/02 00:46:56;;;;;;;2.20;1.70;;;0.80;99.90;-0.20;99597;;;;594023;238;25080;-77
2022/04/02 00:49:25;;;;;;;5.70;1.90;;;0.80;99.90;-0.20;99617;;;;593927;238;24113;-78
2022/04/02 00:51:53;;;;;;;1.83;1.30;;;0.80;99.90;-0.20;99589;;;;593629;238;24079;-78
2022/04/02 00:54:23;;;;;;;1.97;1.70;;;0.80;99.90;-0.30;99605;;;;593828;238;24047;-78
2022/04/02 00:56:48;;;;;;;5.03;1.80;;;0.80;99.90;-0.30;99602;;;;593683;238;24063;-77
2022/04/02 00:59:16;;;;;;;2.17;1.43;;;0.70;99.90;-0.20;99609;;;;593774;238;24050;-77
2022/04/02 01:01:47;;;;;;;2.37;1.70;;;0.80;99.90;-0.20;99621;;;;594784;238;24077;-77
2022/04/02 01:04:12;;;;;;;2.00;1.80;;;0.80;99.90;-0.30;99602;;;;594159;238;24068;-80
2022/04/02 01:06:44;;;;;;;2.20;2.03;;;0.70;99.90;-0.30;99611;;;;589278;238;24023;-81
2022/04/02 01:09:09;;;;;;;4.03;1.93;;;0.70;99.90;-0.20;99606;;;;589372;238;24045;-80
2022/04/02 01:11:36;;;;;;;2.67;1.90;;;0.70;99.90;-0.30;99599;;;;593903;238;24047;-77
2022/04/02 01:14:04;;;;;;;6.50;2.00;;;0.70;99.90;-0.30;99615;;;;593587;238;24107;-81
2022/04/02 01:16:35;;;;;;;3.37;1.70;;;0.70;99.90;-0.30;99594;;;;593872;238;24050;-82
2022/04/02 01:18:59;;;;;;;2.13;1.87;;;0.70;99.90;-0.30;99597;;;;603050;238;24045;-81
2022/04/02 01:21:28;;;;;;;1.57;1.40;;;0.70;99.90;-0.30;99613;;;;593973;238;24078;-78
2022/04/02 01:23:56;;;;;;;3.60;2.27;;;0.70;99.90;-0.30;99600;;;;595557;238;24043;-79
2022/04/02 01:26:24;;;;;;;2.73;2.00;;;0.70;99.90;-0.40;99609;;;;594925;237;24052;-82
2022/04/02 01:28:54;;;;;;;3.40;1.70;;;0.60;99.90;-0.30;99613;;;;594764;237;24038;-78
2022/04/02 01:31:25;;;;;;;3.63;1.63;;;0.70;99.90;-0.40;99602;;;;594794;238;24025;-80
2022/04/02 01:33:54;;;;;;;1.73;1.60;;;0.60;99.90;-0.30;99609;;;;592217;238;24020;-79
2022/04/02 01:36:22;;;;;;;3.20;1.60;;;0.60;99.90;-0.30;99631;;;;593873;238;25125;-80
2022/04/02 01:38:54;;;;;;;4.78;1.50;;;0.60;99.90;-0.30;99605;;;;588882;238;34934;-78
2022/04/02 01:41:18;;;;;;;1.07;1.03;;;0.70;99.90;-0.40;99604;;;;593907;238;24025;-79
2022/04/02 01:43:46;;;;;;;1.10;0.90;;;0.70;99.90;-0.40;99602;;;;593927;238;24069;-78
2022/04/02 01:46:14;;;;;;;2.20;1.60;;;0.60;99.90;-0.40;99599;;;;598760;238;24064;-77
2022/04/02 01:48:42;;;;;;;1.17;0.87;;;0.60;99.90;-0.40;99604;;;;594014;238;24082;-77
2022/04/02 01:51:09;;;;;;;1.50;1.40;;;0.60;99.90;-0.40;99628;;;;594092;238;24023;-78
2022/04/02 01:53:38;;;;;;;2.23;1.43;;;0.60;99.90;-0.40;99611;;;;594077;238;25054;-82
2022/04/02 01:56:09;;;;;;;1.90;1.70;;;0.60;99.90;-0.40;99603;;;;594018;238;24026;-77
2022/04/02 01:58:36;;;;;;;2.07;1.50;;;0.60;99.90;-0.30;99603;;;;593962;238;24073;-77
2022/04/02 02:01:06;;;;;;;3.23;1.70;;;0.70;99.90;-0.30;99625;;;;594005;238;24053;-77
2022/04/02 02:03:33;;;;;;;3.33;1.90;;;0.70;99.90;-0.40;99621;;;;593732;238;24050;-78
2022/04/02 02:06:00;;;;;;;3.00;1.97;;;0.60;99.90;-0.30;99607;;;;593678;238;24030;-78
2022/04/02 02:08:29;;;;;;;3.30;1.37;;;0.70;99.90;-0.30;99603;;;;593824;238;24022;-77
2022/04/02 02:10:56;;;;;;;2.47;1.60;;;0.60;99.90;-0.30;99613;;;;593771;238;24065;-77
2022/04/02 02:13:24;;;;;;;1.33;1.23;;;0.60;99.90;-0.30;99605;;;;592512;238;24047;-77
2022/04/02 02:15:52;;;;;;;1.40;1.27;;;0.70;99.90;-0.40;99608;;;;593733;238;24013;-76
2022/04/02 02:18:19;;;;;;;2.40;1.60;;;0.60;99.90;-0.40;99608;;;;593653;238;24017;-78
2022/04/02 02:20:47;;;;;;;1.80;1.30;;;0.60;99.90;-0.40;99609;;;;593880;238;24021;-78
2022/04/02 02:23:15;;;;;;;3.03;1.57;;;0.60;99.90;-0.40;99601;;;;593817;238;24081;-76
2022/04/02 02:25:43;;;;;;;4.93;1.40;;;0.60;99.90;-0.40;99613;;;;593678;238;24053;-76
2022/04/02 02:28:11;;;;;;;4.00;1.80;;;0.60;99.90;-0.40;99601;;;;593709;238;24050;-76
2022/04/02 02:30:39;;;;;;;7.90;1.80;;;0.60;99.90;-0.40;99598;;;;593518;238;24041;-77
2022/04/02 02:35:54;;;;;;;4.78;1.50;;;0.70;99.90;-0.40;99589;;;;588639;238;34901;-76
2022/04/02 02:38:21;;;;;;;1.43;1.20;;;0.70;99.90;-0.40;99589;;;;594868;237;24025;-80
2022/04/02 02:40:49;;;;;;;3.40;1.30;;;0.60;99.90;-0.30;99599;;;;585107;237;34834;-78
2022/04/02 02:43:16;;;;;;;6.60;1.30;;;0.60;99.90;-0.30;99597;;;;594412;238;24087;-82
2022/04/02 02:45:44;;;;;;;1.30;0.80;;;0.70;99.90;-0.30;99584;;;;594473;238;24062;-81
2022/04/02 02:48:12;;;;;;;1.80;0.87;;;0.70;99.90;-0.30;99593;;;;594333;238;24076;-83
2022/04/02 02:50:42;;;;;;;0.67;0.67;;;0.70;99.90;-0.20;99602;;;;594251;238;24054;-82
2022/04/02 02:53:08;;;;;;;0.83;0.83;;;0.80;99.90;-0.30;99577;;;;594545;238;24043;-76
2022/04/02 02:55:37;;;;;;;0.77;0.77;;;0.70;99.90;-0.30;99574;;;;594309;238;24057;-77
2022/04/02 02:58:05;;;;;;;1.03;1.03;;;0.70;99.90;-0.30;99589;;;;593959;238;24098;-78
2022/04/02 03:00:33;;;;;;;1.23;1.23;;;0.70;99.90;-0.30;99593;;;;594065;238;24047;-76
2022/04/02 03:03:00;;;;;;;1.60;1.50;;;0.70;99.90;-0.30;99588;;;;594075;238;24075;-77
2022/04/02 03:05:28;;;;;;;1.77;1.67;;;0.70;99.90;-0.30;99593;;;;594050;238;24049;-78
2022/04/02 03:07:56;;;;;;;4.57;2.03;;;0.70;99.90;-0.30;99588;;;;594349;238;24045;-83
2022/04/02 03:10:25;;;;;;;1.80;1.00;;;0.70;99.90;-0.30;99597;;;;594465;238;24062;-78
2022/04/02 03:12:52;;;;;;;2.43;1.50;;;0.70;99.90;-0.30;99583;;;;593960;238;24049;-78
2022/04/02 03:15:20;;;;;;;5.73;2.00;;;0.70;99.90;-0.30;99600;;;;593484;238;24048;-82
2022/04/02 03:17:48;;;;;;;1.43;1.33;;;0.70;99.90;-0.30;99591;;;;594025;238;24068;-77
2022/04/02 03:20:17;;;;;;;1.73;1.27;;;0.70;99.90;-0.30;99601;;;;591859;238;24083;-80
2022/04/02 03:22:45;;;;;;;5.13;1.67;;;0.70;99.90;-0.20;99598;;;;589368;238;24049;-81
2022/04/02 03:25:12;;;;;;;1.57;1.47;;;0.80;99.90;-0.20;99608;;;;593544;238;25105;-82
2022/04/02 03:27:40;;;;;;;2.77;1.63;;;0.70;99.90;-0.20;99594;;;;603485;238;24098;-83
2022/04/02 03:30:11;;;;;;;1.80;1.40;;;0.70;99.90;-0.30;99605;;;;593539;238;24054;-82
2022/04/02 03:32:36;;;;;;;1.53;1.30;;;0.80;99.90;-0.20;99600;;;;593624;238;24037;-81
2022/04/02 03:35:04;;;;;;;2.10;1.10;;;0.80;99.90;-0.20;99617;;;;594608;238;24033;-81
2022/04/02 03:37:32;;;;;;;3.33;1.50;;;0.80;99.90;-0.20;99618;;;;590052;238;24063;-82
2022/04/02 03:40:00;;;;;;;2.13;1.30;;;0.80;99.90;-0.20;99600;;;;594608;238;24046;-82
2022/04/02 03:42:28;;;;;;;1.50;1.30;;;0.80;99.90;-0.20;99605;;;;594332;238;24056;-78
2022/04/02 03:44:56;;;;;;;1.60;1.30;;;0.80;99.90;-0.20;99616;;;;594182;238;24055;-82
2022/04/02 03:47:23;;;;;;;2.43;1.50;;;0.80;99.90;-0.20;99618;;;;594418;238;24084;-82
2022/04/02 03:49:51;;;;;;;1.40;1.15;;;0.80;99.90;-0.20;99612;;;;590345;237;34871;-82
2022/04/02 03:52:19;;;;;;;1.73;0.83;;;0.80;99.90;-0.20;99629;;;;595505;237;24061;-80
2022/04/02 03:54:47;;;;;;;1.13;0.83;;;0.80;99.90;-0.20;99608;;;;594948;238;24061;-83
2022/04/02 03:57:16;;;;;;;3.27;0.93;;;0.80;99.90;-0.20;99609;;;;595355;238;24102;-81
2022/04/02 03:59:44;;;;;;;3.00;1.03;;;0.80;99.90;-0.10;99620;;;;594775;238;24056;-83
2022/04/02 04:02:12;;;;;;;0.70;0.70;;;0.90;99.90;-0.10;99616;;;;594590;238;24025;-79
2022/04/02 04:04:40;;;;;;;1.77;0.87;;;0.90;99.90;-0.10;99613;;;;594755;238;24029;-82
2022/04/02 04:07:07;;;;;;;1.53;1.00;;;0.80;99.90;-0.10;99630;;;;590031;238;24064;-82
2022/04/02 04:09:40;;;;;;;1.50;1.40;;;0.90;99.90;-0.10;99633;;;;594485;238;24041;-83
2022/04/02 04:12:03;;;;;;;2.20;1.47;;;0.90;99.90;-0.10;99611;;;;594286;238;24057;-82
2022/04/02 04:14:31;;;;;;;1.87;1.67;;;0.90;99.90;-0.10;99621;;;;594159;238;24066;-81
2022/04/02 04:16:59;;;;;;;4.23;1.37;;;0.90;99.90;-0.10;99632;;;;594406;238;24064;-83
2022/04/02 04:19:30;;;;;;;1.47;1.17;;;0.90;99.90;-0.10;99614;;;;594148;238;24028;-82
2022/04/02 04:21:55;;;;;;;1.37;1.20;;;0.90;99.90;-0.10;99645;;;;593861;238;24077;-78
2022/04/02 04:24:23;;;;;;;1.80;1.30;;;0.90;99.90;-0.10;99642;;;;594004;238;24105;-82
2022/04/02 04:26:51;;;;;;;2.77;1.30;;;0.90;99.90;0.00;99623;;;;593912;238;25072;-81
2022/04/02 04:29:19;;;;;;;1.87;1.30;;;0.90;99.90;0.00;99632;;;;593665;238;24051;-78
2022/04/02 04:31:46;;;;;;;1.23;1.13;;;1.00;99.90;-0.10;99633;;;;593392;238;24040;-77
2022/04/02 04:34:17;;;;;;;2.40;0.93;;;0.90;99.90;0.00;99635;;;;594035;238;24047;-77
2022/04/02 04:36:42;;;;;;;0.77;0.77;;;1.00;99.90;0.00;99668;;;;594048;238;24038;-76
2022/04/02 04:39:10;;;;;;;1.20;1.20;;;1.00;99.90;0.10;99626;;;;594281;238;24046;-79
2022/04/02 04:41:38;;;;;;;2.63;1.27;;;1.00;99.90;0.20;99646;;;;594194;238;24056;-82
2022/04/02 04:44:06;;;;;;;4.23;1.17;;;1.10;99.90;0.20;99658;;;;594159;238;24014;-77
2022/04/02 04:46:34;;;;;;;1.77;1.30;;;1.20;99.90;0.30;99646;;;;594509;238;24025;-82
2022/04/02 04:49:02;;;;;;;1.67;1.30;;;1.20;99.90;0.30;99638;;;;594377;238;24047;-81
2022/04/02 04:51:30;;;;;;;2.90;1.40;;;1.20;99.90;0.40;99656;;;;594460;238;24430;-79
2022/04/02 04:53:58;;;;;;;1.87;1.13;;;1.30;99.90;0.40;99642;;;;594068;238;24081;-83
2022/04/02 04:56:25;;;;;;;0.93;0.93;;;1.30;99.90;0.50;99644;;;;594008;238;24104;-83
2022/04/02 04:58:53;;;;;;;1.30;0.70;;;1.40;99.90;0.50;99665;;;;594172;238;24011;-78
2022/04/02 05:01:22;;;;;;;0.97;0.97;;;1.40;99.90;0.60;99651;;;;595279;237;24112;-83
2022/04/02 05:03:49;;;;;;;4.23;1.20;;;1.50;99.90;0.60;99663;;;;594894;237;24045;-83
2022/04/02 05:06:18;;;;;;;1.57;0.70;;;1.60;99.90;0.60;99684;;;;594602;238;24041;-81
2022/04/02 05:08:45;;;;;;;1.40;0.70;;;1.60;99.90;0.80;99675;;;;594864;238;25098;-81
2022/04/02 05:11:13;;;;;;;0.50;0.50;;;1.70;99.90;0.80;99661;;;;594267;238;24026;-83
2022/04/02 05:13:41;;;;;;;1.17;0.90;;;1.70;99.90;0.90;99672;;;;594507;238;24017;-82
2022/04/02 05:16:09;;;;;;;1.70;1.27;;;1.90;99.90;1.00;99665;;;;594550;238;25128;-82
2022/04/02 05:18:37;;;;;;;3.30;0.80;;;1.90;99.90;1.10;99673;;;;594367;238;24032;-77
2022/04/02 05:21:06;;;;;;;1.83;0.90;;;2.20;99.90;1.30;99686;;;;594239;238;24021;-81
2022/04/02 05:23:34;;;;;;;0.80;0.80;;;2.20;99.90;1.70;99679;;;;593706;238;24020;-82
2022/04/02 05:26:03;;;;;;;0.83;0.83;;;2.90;99.90;2.20;99679;;;;593607;238;24063;-82
2022/04/02 05:28:31;;;;;;;0.60;0.60;;;2.90;99.90;2.60;99694;;;;593975;238;24017;-81
2022/04/02 05:30:59;;;;;;;0.77;0.77;;;3.40;99.90;2.80;99696;;;;594123;238;24033;-82
2022/04/02 05:33:26;;;;;;;0.77;0.77;;;3.70;99.90;2.90;99704;;;;594343;238;24072;-80
2022/04/02 05:35:54;;;;;;;0.50;0.50;;;3.80;99.90;2.80;99688;;;;594729;238;24070;-82
2022/04/02 05:38:22;;;;;;;1.93;1.20;;;3.80;99.90;2.70;99694;;;;594352;238;24086;-81
2022/04/02 05:40:50;;;;;;;1.90;0.60;;;3.70;99.90;2.70;99738;;;;594127;238;24098;-83
2022/04/02 05:43:18;;;;;;;0.83;0.60;;;3.70;99.90;2.70;99704;;;;593802;238;24061;-77
2022/04/02 05:45:46;;;;;;;3.57;1.40;;;3.60;99.90;2.80;99699;;;;593801;238;24047;-80
2022/04/02 05:48:14;;;;;;;1.63;1.03;;;3.70;99.90;3.40;99724;;;;593290;238;24110;-81
2022/04/02 05:50:42;;;;;;;0.80;0.80;;;4.20;99.90;4.80;99730;;;;593303;238;25123;-79
2022/04/02 05:53:10;;;;;;;0.80;0.80;;;5.20;99.20;4.90;99722;;;;602944;238;24312;-81
2022/04/02 05:55:37;;;;;;;2.70;0.80;;;5.70;95.70;5.10;99724;;;;593535;238;24085;-82
2022/04/02 05:58:09;;;;;;;2.23;0.93;;;5.90;95.20;5.10;99711;;;;593587;238;24051;-81
2022/04/02 06:00:34;;;;;;;1.70;0.83;;;6.70;93.50;5.90;99728;;;;589240;238;24068;-82
2022/04/02 06:03:02;;;;;;;1.20;0.77;;;6.70;93.40;6.40;99727;;;;593770;238;24047;-81
2022/04/02 06:05:30;;;;;;;1.17;1.03;;;7.50;87.80;6.50;99738;;;;593784;238;24115;-80
2022/04/02 06:07:58;;;;;;;3.50;1.00;;;7.50;87.80;6.80;99722;;;;594120;238;24115;-79
2022/04/02 06:10:26;;;;;;;1.70;0.57;;;7.60;86.90;7.30;99750;;;;593891;238;24057;-80
2022/04/02 06:12:54;;;;;;;1.20;1.10;;;8.20;84.10;7.50;99776;;;;595085;237;24088;-80
2022/04/02 06:15:24;;;;;;;2.70;1.27;;;8.40;83.30;7.80;99756;;;;594928;237;24020;-77
2022/04/02 06:17:51;;;;;;;2.20;1.20;;;9.00;80.70;8.40;99756;;;;594396;238;24075;-83
2022/04/02 06:20:22;;;;;;;1.30;1.00;;;9.00;80.70;9.20;99753;;;;592494;238;24032;-83
2022/04/02 06:22:46;;;;;;;0.90;0.90;;;9.80;76.10;9.70;99747;;;;593815;238;24055;-79
2022/04/02 06:25:14;;;;;;;1.73;1.10;;;10.40;71.80;9.10;99756;;;;594074;238;24135;-79
2022/04/02 06:27:45;;;;;;;2.93;1.20;;;10.30;67.90;9.00;99763;;;;594182;238;24049;-77
2022/04/02 06:30:13;;;;;;;3.93;1.33;;;10.00;67.50;9.40;99749;;;;593570;238;24128;-77
2022/04/02 06:32:41;;;;;;;3.60;1.10;;;10.30;66.90;9.60;99760;;;;593702;238;24082;-78
2022/04/02 06:35:09;;;;;;;2.00;0.90;;;10.60;65.20;9.20;99776;;;;592468;238;24051;-78
2022/04/02 06:37:37;;;;;;;4.63;0.90;;;10.40;64.30;9.70;99788;;;;594113;238;24086;-82
2022/04/02 06:40:09;;;;;;;3.57;1.17;;;10.50;65.30;10.30;99776;;;;594369;238;24047;-80
2022/04/02 06:42:33;;;;;;;2.13;1.10;;;11.00;62.70;9.80;99770;;;;593593;238;24064;-82
2022/04/02 06:45:01;;;;;;;3.00;0.80;;;10.80;61.00;9.70;99764;;;;592534;238;24060;-83
2022/04/02 06:47:29;;;;;;;1.27;1.20;;;10.80;60.90;10.40;99763;;;;594289;238;24077;-83
2022/04/02 06:50:01;;;;;;;3.67;1.13;;;11.10;60.50;10.80;99777;;;;594042;238;24141;-78
2022/04/02 06:52:25;;;;;;;1.20;0.70;;;11.60;58.50;11.80;99793;;;;594278;238;24043;-80
2022/04/02 06:54:54;;;;;;;1.27;1.17;;;13.10;55.80;12.30;99792;;;;592356;238;25145;-76
2022/04/02 06:57:22;;;;;;;2.03;0.90;;;13.10;55.80;12.40;99792;;;;589227;238;24077;-77
2022/04/02 06:59:50;;;;;;;1.90;1.10;;;13.30;54.60;12.40;99788;;;;594895;238;24111;-77
2022/04/02 07:02:18;;;;;;;5.93;1.00;;;13.40;53.10;12.30;99809;;;;593824;238;24042;-78
2022/04/02 07:04:45;;;;;;;2.50;1.37;;;13.40;52.80;12.00;99808;;;;593727;238;24018;-79
2022/04/02 07:07:13;;;;;;;2.27;1.03;;;13.10;52.30;12.10;99826;;;;593656;238;24115;-78
2022/04/02 07:09:41;;;;;;;4.07;1.33;;;13.00;52.90;12.40;99822;;;;593775;238;24063;-80
2022/04/02 07:12:09;;;;;;;5.53;1.20;;;13.30;52.70;12.20;99794;;;;593785;238;24065;-78
2022/04/02 07:14:38;;;;;;;5.33;0.90;;;13.50;51.70;12.60;99809;;;;593784;238;24043;-78
2022/04/02 07:17:07;;;;;;;3.50;1.50;;;13.90;51.10;13.20;99791;;;;593800;238;24014;-77
2022/04/02 07:19:35;;;;;;;5.17;1.30;;;13.90;51.00;14.10;99802;;;;593702;238;24058;-76
2022/04/02 07:22:02;;;;;;;3.40;1.33;;;14.70;48.60;14.70;99799;;;;592004;238;24108;-78
2022/04/02 07:24:30;;;;;;;7.27;1.57;;;15.50;47.90;15.60;99812;;;;592620;237;24017;-77
2022/04/02 07:26:59;;;;;;;1.73;1.03;;;16.30;46.70;15.40;99825;;;;594958;237;24044;-78
2022/04/02 07:29:27;;;;;;;2.80;1.10;;;16.30;46.70;15.00;99823;;;;595610;238;24094;-77
2022/04/02 07:31:55;;;;;;;4.33;1.33;;;16.30;45.20;14.40;99820;;;;594521;238;24090;-79
2022/04/02 07:34:23;;;;;;;3.80;1.23;;;15.60;46.20;13.80;99818;;;;594277;238;24049;-77
2022/04/02 07:37:27;;;;;;;5.53;1.03;;;14.50;47.50;13.10;99832;;;;594185;238;24033;-78
2022/04/02 07:40:11;;;;;;;3.50;1.40;;;13.40;48.30;11.80;99832;;;;594384;238;24027;-77
2022/04/02 07:42:46;;;;;;;6.90;0.87;;;13.40;48.40;10.80;99809;;;;600624;238;24060;-82
2022/04/02 07:45:13;;;;;;;2.77;1.30;;;12.30;49.30;9.80;99831;;;;593356;238;24058;-79
2022/04/02 07:47:43;;;;;;;1.47;0.93;;;11.30;51.10;10.20;99827;;;;593580;238;24083;-77
2022/04/02 07:50:13;;;;;;;5.80;1.00;;;11.10;52.60;10.90;99849;;;;593786;238;24089;-78
2022/04/02 07:52:39;;;;;;;0.97;0.97;;;11.60;51.40;11.60;99842;;;;593666;238;24068;-82
2022/04/02 07:55:07;;;;;;;10.60;1.20;;;12.30;50.30;11.10;99854;;;;591716;238;24036;-79
2022/04/02 07:57:43;;;;;;;1.27;1.17;;;12.20;50.90;11.40;99830;;;;593844;238;24034;-82
2022/04/02 08:00:11;;;;;;;1.67;0.90;;;12.40;51.60;10.70;99853;;;;589483;238;24050;-80
2022/04/02 08:02:43;;;;;;;1.03;1.03;;;12.00;50.40;9.50;99848;;;;594053;238;24034;-83
2022/04/02 08:05:10;;;;;;;3.73;0.90;;;11.10;51.80;9.50;99856;;;;593947;238;24073;-82
2022/04/02 08:07:35;;;;;;;1.07;0.97;;;10.70;53.30;10.60;99857;;;;593984;238;24111;-82
2022/04/02 08:10:10;;;;;;;4.90;1.33;;;11.30;54.20;10.90;99835;;;;594016;238;24060;-81
2022/04/02 08:12:39;;;;;;;2.53;1.00;;;11.60;53.90;11.20;99876;;;;592293;238;24051;-81
2022/04/02 08:15:07;;;;;;;1.13;1.03;;;12.30;51.60;10.70;99856;;;;591765;238;24051;-82
2022/04/02 08:17:33;;;;;;;3.53;0.73;;;11.60;51.90;10.20;99854;;;;593733;238;25137;-77
2022/04/02 08:20:05;;;;;;;6.03;1.27;;;11.50;51.30;9.90;99861;;;;593715;238;24039;-76
2022/04/02 08:22:32;;;;;;;2.00;0.80;;;11.20;52.00;10.20;99918;;;;593760;238;24071;-76
2022/04/02 08:24:58;;;;;;;0.90;0.90;;;11.20;52.30;10.70;99868;;;;593596;238;24096;-78
2022/04/02 08:27:32;;;;;;;1.07;0.93;;;12.10;51.60;11.30;99864;;;;594701;238;24093;-78
2022/04/02 08:30:11;;;;;;;1.17;0.97;;;12.10;51.60;12.10;99851;;;;591983;238;24070;-77
2022/04/02 08:32:54;;;;;;;2.43;0.90;;;12.80;50.50;12.30;99873;;;;593535;238;24070;-77
2022/04/02 08:35:25;;;;;;;2.37;1.30;;;13.30;49.70;12.80;99865;;;;591914;237;24103;-77
2022/04/02 08:37:59;;;;;;;7.80;1.20;;;13.70;49.40;13.40;99862;;;;594344;237;24071;-77
2022/04/02 08:41:04;;;;;;;1.50;0.97;;;14.30;48.20;14.00;99874;;;;594069;238;24016;-77
2022/04/02 08:44:09;;;;;;;1.23;0.90;;;14.90;44.90;15.00;99887;;;;602602;238;24028;-77
2022/04/02 08:46:37;;;;;;;1.48;1.25;;;17.10;43.70;16.30;99893;;;;589461;238;34932;-77
2022/04/02 08:49:24;;;;;;;2.33;1.30;;;17.00;43.60;17.10;99873;;;;592600;238;24044;-77
2022/04/02 08:52:16;;;;;;;3.23;1.80;;;17.90;42.80;17.90;99897;;;;591889;238;24019;-77
2022/04/02 08:55:14;;;;;;;4.87;1.40;;;18.80;42.00;17.80;99905;;;;594074;238;24014;-77
2022/04/02 08:57:54;;;;;;;4.30;1.30;;;19.20;39.20;16.70;99916;;;;594079;238;24086;-78
2022/04/02 09:00:25;;;;;;;3.03;1.20;;;18.30;39.00;16.80;99894;;;;595621;238;24043;-76
2022/04/02 09:03:14;;;;;;;1.20;1.00;;;18.10;40.00;17.20;99896;;;;593709;238;24071;-79
2022/04/02 09:06:28;;;;;;;2.63;1.27;;;18.40;39.80;17.30;99886;;;;594012;238;24067;-78
2022/04/02 09:09:08;;;;;;;4.73;1.57;;;18.50;39.90;17.90;99902;;;;593984;238;24011;-78
2022/04/02 09:12:00;;;;;;;2.17;1.53;;;19.00;38.30;18.70;99910;;;;592694;238;24050;-77
2022/04/02 09:14:34;;;;;;;2.43;1.37;;;19.60;37.90;19.30;99900;;;;591158;238;24076;-77
2022/04/02 09:17:02;;;;;;;1.53;1.00;;;20.30;35.20;19.40;99897;;;;593441;238;24045;-80
2022/04/02 09:19:55;;;;;;;3.07;1.33;;;20.70;34.70;19.10;99918;;;;593371;238;24052;-83
2022/04/02 09:22:34;;;;;;;1.87;1.40;;;20.80;34.50;18.80;99915;;;;591767;238;23118;-79
2022/04/02 09:25:16;;;;;;;6.80;1.43;;;20.50;35.10;18.90;99904;;;;593429;238;24008;-81
2022/04/02 09:28:10;;;;;;;1.83;1.27;;;20.30;34.40;18.80;99900;;;;591346;238;23074;-82
2022/04/02 09:31:06;;;;;;;3.40;1.33;;;20.30;35.00;18.90;99901;;;;587804;238;24019;-80
2022/04/02 09:34:05;;;;;;;4.47;1.60;;;20.30;35.50;18.90;99905;;;;592974;238;23109;-82
2022/04/02 09:37:04;;;;;;;1.87;1.00;;;20.50;34.70;19.10;99911;;;;592994;238;24021;-83
2022/04/02 09:39:53;;;;;;;3.13;1.60;;;20.50;34.70;18.90;99890;;;;593985;238;23051;-84
2022/04/02 09:42:41;;;;;;;1.73;1.30;;;20.50;34.50;18.90;99903;;;;591697;238;24060;-82
2022/04/02 09:45:13;;;;;;;2.87;1.57;;;20.40;35.30;18.20;99889;;;;593366;238;24056;-82
2022/04/02 09:47:49;;;;;;;1.40;1.20;;;20.00;35.00;18.40;99889;;;;592991;237;23127;-83
2022/04/02 09:50:24;;;;;;;7.63;1.40;;;20.10;35.20;18.00;99901;;;;594549;237;24037;-83
2022/04/02 09:52:54;;;;;;;3.43;1.70;;;19.90;35.20;17.90;99889;;;;593071;238;24026;-82
2022/04/02 09:55:28;;;;;;;2.60;1.43;;;19.70;34.80;18.30;99893;;;;595355;238;24035;-83
2022/04/02 09:58:17;;;;;;;2.13;1.57;;;20.10;35.00;18.40;99908;;;;591984;238;23068;-83
2022/04/02 10:01:06;;;;;;;4.67;2.00;;;20.10;34.90;18.50;99919;;;;596111;238;24080;-83
2022/04/02 10:03:45;;;;;;;4.17;1.60;;;20.20;34.20;17.70;99922;;;;596192;238;24077;-82
2022/04/02 10:06:26;;;;;;;2.93;1.40;;;19.50;36.00;17.50;99881;;;;589128;242;23111;-82
2022/04/02 10:09:11;;;;;;;2.40;1.57;;;19.40;35.90;17.30;99892;;;;577312;244;24057;-83
2022/04/02 10:11:43;;;;;;;2.13;1.90;;;19.30;36.40;17.10;99904;;;;565368;249;23087;-83
2022/04/02 10:14:11;;;;;;;4.37;1.70;;;19.10;36.70;16.80;99893;;;;573633;244;35050;-82
2022/04/02 10:16:38;;;;;;;1.60;1.50;;;18.70;36.90;15.70;99910;;;;592738;242;24031;-80
2022/04/02 10:19:06;;;;;;;2.20;1.30;;;17.80;36.70;14.40;99914;;;;583711;242;24006;-81
2022/04/02 10:21:37;;;;;;;3.70;1.40;;;14.70;40.00;12.40;99896;;;;583620;242;24030;-81
2022/04/02 10:24:17;;;;;;;4.33;1.80;;;12.70;43.10;10.50;99893;;;;583182;242;24117;-80
2022/04/02 10:26:45;;;;;;;2.83;1.30;;;12.60;43.00;9.20;99895;;;;582951;242;24016;-80
2022/04/02 10:29:15;;;;;;;4.00;1.20;;;11.00;45.60;8.40;99881;;;;582963;242;24032;-79
2022/04/02 10:32:23;;;;;;;2.13;1.33;;;10.00;48.20;7.70;99889;;;;592352;242;24027;-81
2022/04/02 10:34:58;;;;;;;1.23;0.70;;;9.10;50.40;6.90;99880;;;;585442;245;24098;-81
2022/04/02 10:37:43;;;;;;;0.83;0.80;;;8.20;52.40;6.20;99897;;;;582435;242;24115;-81
2022/04/02 10:40:12;;;;;;;3.60;1.13;;;6.90;56.20;5.60;99904;;;;579880;246;24105;-77
2022/04/02 10:42:40;;;;;;;0.80;0.80;;;6.80;56.20;5.40;99873;;;;580334;247;24108;-81
2022/04/02 10:45:11;;;;;;;2.13;1.47;;;6.50;58.10;5.30;99878;;;;571040;247;24099;-78
2022/04/02 10:47:36;;;;;;;1.57;1.10;;;6.30;58.70;5.20;99869;;;;570656;247;24127;-80
2022/04/02 10:50:03;;;;;;;1.90;1.10;;;6.10;59.80;4.90;99881;;;;574659;247;35257;-79
2022/04/02 10:52:31;;;;;;;3.22;1.48;;;5.90;57.90;4.60;99872;;;;564801;247;35177;-80
2022/04/02 10:54:59;;;;;;;2.97;1.10;;;5.70;60.20;4.40;99892;;;;581182;247;24120;-78
2022/04/02 10:57:30;;;;;;;2.03;1.10;;;5.40;60.70;4.30;99867;;;;571843;245;25137;-78
2022/04/02 11:00:04;;;;;;;1.37;1.27;;;5.30;61.40;4.20;99879;;;;569233;247;24092;-80
2022/04/02 11:02:41;;;;;;;2.73;1.10;;;5.10;61.20;4.20;99885;;;;579182;241;24059;-81
2022/04/02 11:05:15;;;;;;;1.70;0.80;;;5.10;62.90;4.00;99892;;;;594764;238;24080;-79
2022/04/02 11:07:45;;;;;;;1.10;1.10;;;5.00;61.20;3.90;99872;;;;578886;245;25127;-78
2022/04/02 11:10:18;;;;;;;6.13;1.47;;;4.80;62.70;3.80;99853;;;;577137;244;24079;-79
2022/04/02 11:12:48;;;;;;;1.40;1.30;;;4.70;63.60;3.70;99858;;;;583928;242;24036;-80
2022/04/02 11:15:21;;;;;;;5.70;1.80;;;4.50;62.70;3.60;99865;;;;583776;242;24064;-79
2022/04/02 11:17:56;;;;;;;2.63;1.70;;;4.50;63.50;3.60;99873;;;;580135;242;24015;-78
2022/04/02 11:20:29;;;;;;;2.97;1.70;;;4.50;63.40;3.50;99887;;;;583955;242;24038;-80
2022/04/02 11:23:02;;;;;;;1.80;1.50;;;4.40;61.30;3.40;99879;;;;582911;242;24118;-79
2022/04/02 11:25:39;;;;;;;2.83;1.80;;;4.40;62.50;3.20;99896;;;;592699;242;24102;-78
2022/04/02 11:28:13;;;;;;;5.70;2.00;;;4.20;64.70;3.10;99864;;;;580244;242;24043;-84
2022/04/02 11:30:47;;;;;;;2.33;1.93;;;4.10;65.80;3.20;99871;;;;569658;250;24076;-80
2022/04/02 11:33:24;;;;;;;3.57;2.03;;;4.10;65.70;3.20;99881;;;;576707;245;24108;-80
2022/04/02 11:35:55;;;;;;;1.80;1.47;;;4.00;65.40;3.10;99879;;;;564863;254;24117;-82
2022/04/02 11:38:27;;;;;;;2.13;1.40;;;4.00;65.30;3.10;99871;;;;576474;246;24061;-78
2022/04/02 11:41:20;;;;;;;3.20;1.67;;;4.00;65.80;3.10;99868;;;;565824;249;24079;-79
2022/04/02 11:43:53;;;;;;;4.00;1.37;;;4.00;65.70;3.10;99883;;;;583863;242;24061;-83